Terminal Aerodrome Forecast
Issued by NWS Sioux Falls, SD

Home | Current Version | Previous Version | Text Only | Print | Product List | Glossary On
Versions: 1 2 3 4 5 6 7 8 9 10 11 12 13 14 15 16 17
000
FTUS43 KFSD 260332 AAA
TAFFSD
TAF AMD
KFSD 260332Z 2604/2624 13010KT 6SM -SN OVC040
      TEMPO 2604/2606 2SM -SN OVC015
     FM260900 36011KT 6SM -SN OVC015
     FM261300 34017G27KT P6SM OVC015
     FM261600 35020G30KT P6SM OVC015
     FM262000 34017G25KT P6SM SCT015=

USA.gov is the U.S. government's official web portal to all federal, state and local government web resources and services.